createdAt,value
2018-03-26T00:00:09.704Z,58.80
2018-03-26T00:17:07.670Z,59.10
2018-03-26T00:22:38.316Z,59.50
2018-03-26T00:28:03.241Z,59.50
2018-03-26T00:33:21.708Z,59.20
2018-03-26T00:38:33.517Z,59.30
2018-03-26T00:41:25.344Z,59.20
2018-03-26T00:44:04.574Z,59.20
2018-03-26T00:46:40.945Z,59.30
2018-03-26T00:49:13.313Z,59.40
2018-03-26T00:51:59.105Z,59.60
2018-03-26T00:54:48.003Z,59.60
2018-03-26T01:04:31.753Z,60.10
2018-03-26T01:14:33.056Z,59.80
2018-03-26T01:19:57.770Z,62.80
2018-03-26T01:22:40.994Z,62.70
2018-03-26T01:25:18.790Z,62.80
2018-03-26T01:39:04.244Z,62.50
2018-03-26T01:41:46.008Z,62.50
2018-03-26T01:44:24.246Z,62.30
2018-03-26T01:49:43.577Z,62.50
2018-03-26T01:55:45.007Z,62.40
2018-03-26T01:58:25.571Z,62.30
2018-03-26T02:01:00.913Z,62.40
2018-03-26T02:03:42.331Z,62.70
2018-03-26T02:06:43.137Z,63.20
2018-03-26T02:09:38.579Z,63.20
2018-03-26T02:15:06.950Z,63.90
2018-03-26T02:17:57.185Z,63.80
2018-03-26T02:20:41.108Z,64.00
2018-03-26T02:25:56.082Z,63.70
2018-03-26T02:28:49.433Z,63.50
2018-03-26T02:31:35.033Z,63.40
2018-03-26T02:37:00.870Z,65.60
2018-03-26T02:39:45.824Z,65.80
2018-03-26T02:42:25.173Z,65.80
2018-03-26T02:58:30.492Z,65.50
2018-03-26T03:04:46.699Z,65.40
2018-03-26T03:07:21.645Z,65.30
2018-03-26T03:10:06.837Z,65.30
2018-03-26T03:15:37.081Z,65.10
2018-03-26T03:21:33.314Z,65.80
2018-03-26T03:24:04.786Z,65.90
2018-03-26T03:26:50.409Z,65.90
2018-03-26T03:29:33.575Z,65.50
2018-03-26T03:32:15.474Z,65.50
2018-03-26T03:35:02.383Z,65.20
2018-03-26T03:38:05.168Z,65.90
2018-03-26T03:40:48.292Z,65.20
2018-03-26T03:43:37.049Z,65.40
2018-03-26T03:46:24.018Z,65.50
2018-03-26T03:49:02.840Z,66.30
2018-03-26T03:51:38.189Z,66.20
2018-03-26T03:57:20.045Z,67.00
2018-03-26T03:59:55.080Z,67.00
2018-03-26T04:05:15.082Z,66.60
2018-03-26T04:07:49.760Z,66.50
2018-03-26T04:10:44.963Z,66.50
2018-03-26T04:19:12.929Z,65.10
2018-03-26T04:28:20.190Z,64.80
2018-03-26T04:33:48.454Z,64.60
2018-03-26T04:42:34.589Z,64.60
2018-03-26T04:45:19.250Z,64.80
2018-03-26T04:50:48.980Z,64.70
2018-03-26T04:57:54.801Z,64.70
2018-03-26T05:00:37.089Z,64.30
2018-03-26T05:06:08.131Z,64.60
2018-03-26T05:08:52.680Z,64.60
2018-03-26T05:12:04.986Z,64.60
2018-03-26T05:14:45.549Z,64.60
2018-03-26T05:33:43.207Z,65.60
2018-03-26T05:39:16.012Z,65.80
2018-03-26T05:41:52.392Z,65.80
2018-03-26T05:50:35.162Z,66.00
2018-03-26T05:56:02.434Z,66.60
2018-03-26T06:01:42.451Z,67.00
2018-03-26T06:04:19.693Z,68.00
2018-03-26T06:06:59.438Z,68.20
2018-03-26T06:12:24.048Z,69.00
2018-03-26T06:14:57.083Z,68.90
2018-03-26T06:17:40.980Z,69.10
2018-03-26T06:24:15.693Z,68.00
2018-03-26T06:26:59.576Z,67.20
2018-03-26T06:29:42.033Z,67.20
2018-03-26T06:32:32.277Z,68.00
2018-03-26T06:35:03.431Z,67.30
2018-03-26T06:41:29.471Z,67.40
2018-03-26T06:47:12.670Z,67.80
2018-03-26T06:49:57.700Z,67.60
2018-03-26T06:52:28.825Z,67.60
2018-03-26T06:55:00.599Z,67.50
2018-03-26T06:57:36.956Z,67.40
2018-03-26T07:00:17.881Z,68.00
2018-03-26T07:02:58.241Z,68.00
2018-03-26T07:08:33.882Z,65.30
2018-03-26T07:11:11.561Z,66.40
2018-03-26T07:13:49.352Z,66.50
2018-03-26T07:16:24.651Z,67.50
2018-03-26T07:25:12.068Z,66.10
2018-03-26T07:28:13.907Z,65.10
2018-03-26T07:34:49.192Z,64.50
2018-03-26T07:48:06.054Z,64.30
2018-03-26T07:53:43.860Z,64.50
2018-03-26T07:56:24.116Z,63.60
2018-03-26T08:01:48.544Z,63.20
2018-03-26T08:04:40.965Z,62.80
2018-03-26T08:07:23.835Z,63.10
2018-03-26T08:09:57.999Z,62.90
2018-03-26T08:12:51.614Z,62.70
2018-03-26T08:15:27.737Z,62.90
2018-03-26T08:18:06.385Z,62.40
2018-03-26T08:20:46.116Z,62.40
2018-03-26T08:23:26.738Z,63.40
2018-03-26T08:26:06.016Z,59.60
2018-03-26T08:44:09.151Z,59.40
2018-03-26T08:46:50.430Z,59.40
2018-03-26T08:55:06.657Z,58.20
2018-03-26T08:58:01.336Z,57.50
2018-03-26T09:03:27.641Z,56.90
2018-03-26T09:06:06.957Z,56.90
2018-03-26T09:08:45.643Z,56.80
2018-03-26T09:11:41.597Z,56.80
2018-03-26T09:14:30.009Z,55.50
2018-03-26T09:17:03.825Z,55.70
2018-03-26T09:22:18.403Z,55.80
2018-03-26T09:25:12.371Z,55.80
2018-03-26T09:27:53.748Z,54.90
2018-03-26T09:34:02.597Z,54.70
2018-03-26T09:36:48.913Z,55.50
2018-03-26T09:39:25.666Z,55.50
2018-03-26T09:42:12.372Z,54.40
2018-03-26T09:48:03.018Z,52.60
2018-03-26T09:51:02.218Z,53.20
2018-03-26T09:53:41.047Z,53.60
2018-03-26T09:56:14.538Z,53.50
2018-03-26T09:58:52.849Z,53.60
2018-03-26T10:09:04.285Z,52.30
2018-03-26T10:11:41.572Z,53.10
2018-03-26T10:14:38.932Z,51.30
2018-03-26T10:17:19.188Z,51.50
2018-03-26T10:19:55.914Z,51.10
2018-03-26T10:22:43.987Z,50.00
2018-03-26T10:25:27.793Z,49.20
2018-03-26T10:28:05.849Z,49.60
2018-03-26T10:30:50.088Z,49.60
2018-03-26T10:33:35.724Z,56.70
2018-03-26T10:39:53.285Z,53.60
2018-03-26T10:42:31.240Z,47.30
2018-03-26T10:45:09.173Z,47.30
2018-03-26T10:47:42.466Z,47.70
2018-03-26T10:50:17.805Z,47.60
2018-03-26T10:53:18.211Z,47.00
2018-03-26T10:56:05.759Z,47.50
2018-03-26T10:58:47.427Z,47.10
2018-03-26T11:01:25.944Z,47.90
2018-03-26T11:04:09.775Z,46.30
2018-03-26T11:06:55.162Z,45.10
2018-03-26T11:09:39.732Z,45.20
2018-03-26T11:12:16.409Z,44.40
2018-03-26T11:14:58.710Z,44.40
2018-03-26T11:23:33.365Z,42.50
2018-03-26T11:26:06.998Z,41.90
2018-03-26T11:28:40.770Z,42.70
2018-03-26T11:31:16.014Z,41.40
2018-03-26T11:33:49.923Z,41.30
2018-03-26T11:36:23.772Z,41.20
2018-03-26T11:39:00.185Z,42.40
2018-03-26T11:41:33.579Z,42.50
2018-03-26T11:44:08.715Z,43.10
2018-03-26T11:46:40.573Z,42.30
2018-03-26T11:49:28.202Z,41.40
2018-03-26T11:52:00.800Z,41.40
2018-03-26T11:57:40.269Z,41.70
2018-03-26T12:03:27.468Z,39.70
2018-03-26T12:06:12.876Z,40.20
2018-03-26T12:08:56.005Z,39.70
2018-03-26T12:11:38.204Z,39.60
2018-03-26T12:14:18.319Z,38.40
2018-03-26T12:19:59.757Z,37.80
2018-03-26T12:25:35.385Z,38.80
2018-03-26T12:31:31.215Z,36.10
2018-03-26T12:34:31.855Z,36.10
2018-03-26T12:40:23.968Z,36.20
2018-03-26T12:42:56.610Z,36.90
2018-03-26T12:48:57.981Z,37.00
2018-03-26T12:54:49.867Z,37.50
2018-03-26T12:57:48.106Z,38.30
2018-03-26T13:00:28.738Z,38.20
2018-03-26T13:03:03.747Z,39.30
2018-03-26T13:05:57.477Z,38.70
2018-03-26T13:08:35.015Z,38.90
2018-03-26T13:11:12.608Z,38.30
2018-03-26T13:13:49.600Z,38.30
2018-03-26T13:16:24.432Z,39.00
2018-03-26T13:19:08.001Z,38.90
2018-03-26T13:21:50.713Z,38.50
2018-03-26T13:24:32.153Z,39.00
2018-03-26T13:30:00.041Z,40.60
2018-03-26T13:36:24.451Z,39.90
2018-03-26T13:38:58.973Z,38.30
2018-03-26T13:41:31.470Z,38.80
2018-03-26T13:44:10.895Z,38.10
2018-03-26T13:46:43.486Z,38.20
2018-03-26T13:49:35.184Z,39.10
2018-03-26T13:59:14.354Z,40.80
2018-03-26T14:02:21.579Z,41.10
2018-03-26T14:05:02.558Z,40.90
2018-03-26T14:13:59.731Z,42.10
2018-03-26T14:19:55.267Z,41.80
2018-03-26T14:22:30.839Z,42.40
2018-03-26T14:31:06.197Z,42.90
2018-03-26T14:33:43.382Z,43.00
2018-03-26T14:56:43.620Z,42.40
2018-03-26T14:59:40.529Z,42.10
2018-03-26T15:06:23.815Z,42.30
2018-03-26T15:09:25.049Z,42.70
2018-03-26T15:23:43.306Z,41.10
2018-03-26T15:26:20.114Z,41.40
2018-03-26T15:28:55.353Z,40.70
2018-03-26T15:31:35.523Z,41.00
2018-03-26T15:34:10.018Z,41.80
2018-03-26T15:36:45.682Z,42.40
2018-03-26T15:39:28.467Z,42.10
2018-03-26T15:47:38.364Z,41.80
2018-03-26T15:50:13.220Z,41.90
2018-03-26T15:52:50.723Z,41.70
2018-03-26T15:58:08.255Z,41.60
2018-03-26T16:00:47.382Z,42.20
2018-03-26T16:03:39.312Z,42.20
2018-03-26T16:06:15.678Z,42.90
2018-03-26T16:14:40.188Z,43.60
2018-03-26T16:20:19.210Z,43.50
2018-03-26T16:28:55.726Z,44.60
2018-03-26T16:34:34.591Z,45.60
2018-03-26T16:39:55.022Z,45.00
2018-03-26T16:46:22.284Z,44.90
2018-03-26T16:51:39.814Z,46.80
2018-03-26T16:54:17.060Z,47.00
2018-03-26T16:56:53.424Z,47.00
2018-03-26T16:59:33.637Z,47.50
2018-03-26T17:04:50.401Z,47.10
2018-03-26T17:07:36.355Z,47.40
2018-03-26T17:10:16.819Z,47.40
2018-03-26T17:13:08.984Z,47.60
2018-03-26T17:15:51.960Z,47.90
2018-03-26T17:24:40.856Z,48.30
2018-03-26T17:27:18.623Z,48.40
2018-03-26T17:29:57.416Z,48.60
2018-03-26T17:32:48.012Z,48.80
2018-03-26T17:35:26.944Z,48.90
2018-03-26T17:38:08.104Z,48.90
2018-03-26T17:49:13.483Z,49.50
2018-03-26T17:51:57.243Z,49.40
2018-03-26T17:54:38.410Z,49.40
2018-03-26T17:57:24.932Z,49.70
2018-03-26T18:00:06.308Z,50.30
2018-03-26T18:02:52.914Z,50.20
2018-03-26T18:05:34.807Z,50.60
2018-03-26T18:08:24.284Z,50.50
2018-03-26T18:11:09.047Z,50.80
2018-03-26T18:14:36.921Z,51.20
2018-03-26T18:23:22.953Z,50.60
2018-03-26T18:28:58.011Z,50.60
2018-03-26T18:34:53.986Z,51.30
2018-03-26T18:37:39.947Z,51.40
2018-03-26T18:54:31.054Z,51.80
2018-03-26T18:57:06.299Z,52.40
2018-03-26T19:05:36.965Z,52.90
2018-03-26T19:11:33.729Z,52.50
2018-03-26T19:14:07.478Z,52.40
2018-03-26T19:16:42.915Z,52.20
2018-03-26T19:23:12.207Z,52.10
2018-03-26T19:25:51.875Z,52.70
2018-03-26T19:45:29.152Z,53.20
2018-03-26T19:48:20.884Z,53.20
2018-03-26T19:51:09.744Z,53.70
2018-03-26T19:54:11.988Z,53.70
2018-03-26T19:57:01.117Z,53.70
2018-03-26T20:02:48.214Z,53.80
2018-03-26T20:05:26.294Z,53.80
2018-03-26T20:08:16.101Z,54.00
2018-03-26T20:11:08.228Z,54.00
2018-03-26T20:13:44.501Z,54.20
2018-03-26T20:16:20.048Z,54.20
2018-03-26T20:19:00.802Z,54.30
2018-03-26T20:24:37.491Z,54.60
2018-03-26T20:34:51.587Z,54.80
2018-03-26T20:37:49.116Z,55.00
2018-03-26T20:40:37.896Z,55.50
2018-03-26T20:46:18.887Z,55.70
2018-03-26T20:48:54.471Z,55.90
2018-03-26T20:54:18.425Z,57.10
2018-03-26T20:57:02.309Z,56.60
2018-03-26T20:59:46.205Z,57.20
2018-03-26T21:02:33.015Z,56.70
2018-03-26T21:05:08.191Z,56.70
2018-03-26T21:07:44.922Z,56.90
2018-03-26T21:10:19.908Z,57.40
2018-03-26T21:12:57.241Z,57.60
2018-03-26T21:15:46.875Z,57.70
2018-03-26T21:24:06.235Z,58.40
2018-03-26T21:26:39.475Z,58.30
2018-03-26T21:29:28.047Z,58.50
2018-03-26T21:34:51.969Z,59.10
2018-03-26T21:37:29.614Z,59.40
2018-03-26T21:40:04.984Z,59.40
2018-03-26T21:42:42.475Z,59.40
2018-03-26T21:45:20.045Z,59.80
2018-03-26T21:52:15.490Z,59.80
2018-03-26T21:54:50.329Z,59.80
2018-03-26T21:57:35.091Z,60.00
2018-03-26T22:00:23.126Z,60.00
2018-03-26T22:02:56.519Z,59.90
2018-03-26T22:05:37.489Z,60.20
2018-03-26T22:08:21.850Z,61.50
2018-03-26T22:11:03.075Z,61.70
2018-03-26T22:13:36.521Z,61.70
2018-03-26T22:19:00.512Z,62.40
2018-03-26T22:21:43.341Z,63.40
2018-03-26T22:24:28.514Z,62.30
2018-03-26T22:27:27.083Z,62.20
2018-03-26T22:30:03.019Z,62.30
2018-03-26T22:32:37.582Z,62.50
2018-03-26T22:35:21.731Z,62.40
2018-03-26T22:37:57.073Z,62.40
2018-03-26T22:49:48.885Z,62.40
2018-03-26T22:52:26.561Z,61.80
2018-03-26T22:58:02.745Z,62.60
2018-03-26T23:06:09.352Z,63.00
2018-03-26T23:08:52.890Z,62.70
2018-03-26T23:11:26.684Z,62.60
2018-03-26T23:14:16.210Z,62.60
2018-03-26T23:19:59.410Z,63.50
2018-03-26T23:22:49.878Z,63.50
2018-03-26T23:25:33.321Z,63.40
2018-03-26T23:28:24.832Z,63.40
2018-03-26T23:31:14.270Z,63.60
2018-03-26T23:37:12.305Z,64.10
2018-03-26T23:39:59.780Z,64.90
2018-03-26T23:42:38.858Z,64.00
2018-03-26T23:45:15.322Z,65.00
2018-03-26T23:47:51.434Z,64.20
2018-03-26T23:50:29.922Z,64.10
2018-03-26T23:58:58.878Z,64.20
